Time;durP1;ratioP1;P1;durP2;ratioP2;P2;SDS_P1;SDS_P2;PMS_P1;PMS_P2;Temp;Humidity;BMP_temperature;BMP_pressure;BME280_temperature;BME280_humidity;BME280_pressure;Samples;Min_cycle;Max_cycle;Signal;HPM_P1;HPM_P2
2022/04/18 00:01:29;;;;;;;36.25;20.30;;;;;;;;;;5028455;28;20038;-63
2022/04/18 00:03:55;;;;;;;36.80;20.60;;;;;;;;;;5029704;28;20061;-63
2022/04/18 00:06:21;;;;;;;38.95;20.15;;;;;;;;;;5031323;28;20542;-63
2022/04/18 00:08:46;;;;;;;37.53;20.55;;;;;;;;;;5033193;28;20132;-63
2022/04/18 00:11:12;;;;;;;38.20;20.20;;;;;;;;;;5012985;28;20059;-63
2022/04/18 00:13:37;;;;;;;35.20;21.05;;;;;;;;;;5040009;28;20087;-64
2022/04/18 00:16:03;;;;;;;37.50;20.75;;;;;;;;;;5032614;28;20037;-63
2022/04/18 00:18:28;;;;;;;38.42;20.20;;;;;;;;;;5014420;28;20087;-64
2022/04/18 00:20:54;;;;;;;37.13;20.85;;;;;;;;;;5033312;28;20048;-64
2022/04/18 00:23:19;;;;;;;40.88;21.63;;;;;;;;;;5012798;28;20514;-63
2022/04/18 00:25:44;;;;;;;38.35;20.92;;;;;;;;;;5027442;28;20029;-64
2022/04/18 00:28:10;;;;;;;39.22;20.98;;;;;;;;;;5036879;28;20044;-64
2022/04/18 00:30:35;;;;;;;38.33;20.00;;;;;;;;;;5028233;28;20033;-64
2022/04/18 00:33:01;;;;;;;34.50;19.08;;;;;;;;;;5025142;28;20095;-63
2022/04/18 00:35:26;;;;;;;40.28;20.67;;;;;;;;;;5034315;28;20029;-64
2022/04/18 00:37:52;;;;;;;37.63;21.13;;;;;;;;;;5052448;28;20029;-64
2022/04/18 00:40:17;;;;;;;40.83;20.08;;;;;;;;;;5026612;28;20036;-64
2022/04/18 00:42:44;;;;;;;35.53;19.73;;;;;;;;;;5031535;28;20489;-64
2022/04/18 00:45:09;;;;;;;34.03;19.00;;;;;;;;;;5008385;28;20037;-64
2022/04/18 00:47:35;;;;;;;35.40;19.75;;;;;;;;;;5018514;28;20045;-63
2022/04/18 00:50:01;;;;;;;35.38;19.60;;;;;;;;;;5021361;28;20368;-64
2022/04/18 00:52:27;;;;;;;35.33;19.23;;;;;;;;;;5020222;28;20599;-64
2022/04/18 00:54:54;;;;;;;35.05;19.38;;;;;;;;;;5030452;28;20043;-65
2022/04/18 00:57:20;;;;;;;33.70;19.42;;;;;;;;;;5027499;28;20466;-64
2022/04/18 00:59:46;;;;;;;34.50;18.38;;;;;;;;;;5026466;28;20038;-64
2022/04/18 01:02:13;;;;;;;37.90;18.65;;;;;;;;;;5021441;28;20489;-64
2022/04/18 01:04:39;;;;;;;34.05;18.60;;;;;;;;;;5028000;28;20032;-65
2022/04/18 01:07:05;;;;;;;36.55;18.52;;;;;;;;;;5051810;28;20066;-64
2022/04/18 01:09:32;;;;;;;32.03;17.88;;;;;;;;;;5043947;28;20390;-64
2022/04/18 01:11:58;;;;;;;32.30;17.52;;;;;;;;;;5048054;28;20032;-64
2022/04/18 01:14:24;;;;;;;31.55;16.83;;;;;;;;;;5027260;28;20049;-64
2022/04/18 01:16:50;;;;;;;35.78;18.08;;;;;;;;;;5050577;28;20043;-64
2022/04/18 01:19:16;;;;;;;35.08;18.42;;;;;;;;;;5033119;28;20029;-64
2022/04/18 01:21:42;;;;;;;32.88;17.63;;;;;;;;;;5031960;28;20482;-64
2022/04/18 01:28:58;;;;;;;33.88;18.05;;;;;;;;;;5018065;28;20060;-64
2022/04/18 01:29:37;;;;;;;34.85;17.23;;;;;;;;;;5049231;28;20052;-64
2022/04/18 01:32:03;;;;;;;33.45;17.05;;;;;;;;;;5039542;28;20029;-64
2022/04/18 01:34:28;;;;;;;30.35;16.70;;;;;;;;;;5041755;28;20486;-64
2022/04/18 01:36:53;;;;;;;30.15;16.55;;;;;;;;;;5027836;28;20475;-64
2022/04/18 01:39:19;;;;;;;32.00;16.48;;;;;;;;;;5026534;28;20512;-64
2022/04/18 01:41:45;;;;;;;28.75;16.10;;;;;;;;;;5027150;28;20034;-64
2022/04/18 01:44:11;;;;;;;29.50;16.40;;;;;;;;;;5013596;28;20084;-64
2022/04/18 01:46:37;;;;;;;32.15;16.17;;;;;;;;;;5018007;28;20029;-64
2022/04/18 01:49:02;;;;;;;31.73;17.15;;;;;;;;;;5027517;28;20041;-64
2022/04/18 01:51:28;;;;;;;30.60;17.02;;;;;;;;;;5018862;28;20033;-63
2022/04/18 01:53:53;;;;;;;35.65;17.38;;;;;;;;;;5015907;28;20040;-63
2022/04/18 01:56:18;;;;;;;29.63;17.00;;;;;;;;;;5024954;28;20062;-63
2022/04/18 01:58:44;;;;;;;34.33;17.55;;;;;;;;;;5020398;28;20029;-64
2022/04/18 02:01:10;;;;;;;30.48;15.95;;;;;;;;;;5044497;28;20079;-63
2022/04/18 02:03:40;;;;;;;34.35;16.83;;;;;;;;;;5025007;28;20483;-64
2022/04/18 02:06:06;;;;;;;28.55;15.32;;;;;;;;;;5021366;28;20506;-63
2022/04/18 02:08:31;;;;;;;28.65;15.15;;;;;;;;;;5032520;28;20033;-63
2022/04/18 02:10:57;;;;;;;30.98;16.15;;;;;;;;;;5031498;28;20077;-65
2022/04/18 02:13:22;;;;;;;27.92;15.02;;;;;;;;;;5027536;28;20183;-63
2022/04/18 02:15:48;;;;;;;28.95;16.42;;;;;;;;;;5024824;28;20080;-63
2022/04/18 02:18:13;;;;;;;28.15;15.43;;;;;;;;;;5029088;28;20037;-63
2022/04/18 02:20:39;;;;;;;30.00;14.70;;;;;;;;;;5022319;28;20066;-63
2022/04/18 02:23:04;;;;;;;29.58;15.43;;;;;;;;;;5047397;28;20135;-64
2022/04/18 02:25:30;;;;;;;27.58;14.88;;;;;;;;;;5014943;28;20077;-63
2022/04/18 02:27:55;;;;;;;27.52;15.52;;;;;;;;;;5011605;28;20041;-63
2022/04/18 02:30:21;;;;;;;25.00;14.82;;;;;;;;;;5023684;28;20041;-65
2022/04/18 02:32:52;;;;;;;27.40;15.43;;;;;;;;;;5030175;28;20071;-64
2022/04/18 02:35:20;;;;;;;26.67;15.43;;;;;;;;;;5024834;28;20026;-63
2022/04/18 02:37:46;;;;;;;25.58;14.65;;;;;;;;;;5019243;28;20103;-64
2022/04/18 02:40:12;;;;;;;26.33;14.00;;;;;;;;;;5025407;28;20077;-63
2022/04/18 02:42:37;;;;;;;29.13;15.48;;;;;;;;;;5030619;28;20574;-63
2022/04/18 02:45:03;;;;;;;26.95;14.45;;;;;;;;;;5027061;28;20026;-63
2022/04/18 02:47:28;;;;;;;26.90;15.48;;;;;;;;;;5013815;28;20487;-64
2022/04/18 02:49:53;;;;;;;26.52;14.80;;;;;;;;;;5025809;28;20026;-63
2022/04/18 02:52:19;;;;;;;31.08;15.00;;;;;;;;;;5033617;28;20025;-64
2022/04/18 02:54:44;;;;;;;26.92;14.88;;;;;;;;;;5013599;28;20171;-64
2022/04/18 02:57:11;;;;;;;28.30;14.55;;;;;;;;;;5026247;28;20498;-63
2022/04/18 02:59:38;;;;;;;27.23;14.82;;;;;;;;;;5008525;28;20195;-64
2022/04/18 03:02:04;;;;;;;29.25;15.00;;;;;;;;;;5040469;28;20037;-63
2022/04/18 03:04:29;;;;;;;28.73;14.90;;;;;;;;;;5032434;28;20373;-64
2022/04/18 03:06:55;;;;;;;25.65;13.93;;;;;;;;;;5041766;28;20029;-64
2022/04/18 03:09:20;;;;;;;25.45;14.25;;;;;;;;;;5022869;28;20384;-64
2022/04/18 03:11:46;;;;;;;24.17;13.60;;;;;;;;;;5018136;28;20113;-64
2022/04/18 03:14:11;;;;;;;26.75;14.18;;;;;;;;;;5028897;28;20037;-64
2022/04/18 03:16:37;;;;;;;23.80;13.75;;;;;;;;;;5016837;28;20026;-63
2022/04/18 03:19:02;;;;;;;25.38;13.68;;;;;;;;;;5028747;28;20029;-63
2022/04/18 03:21:27;;;;;;;26.88;13.43;;;;;;;;;;5028684;28;20128;-64
2022/04/18 03:23:55;;;;;;;26.00;14.05;;;;;;;;;;5025484;28;20100;-63
2022/04/18 03:26:20;;;;;;;24.63;13.30;;;;;;;;;;5015752;28;20033;-63
2022/04/18 03:28:46;;;;;;;28.75;13.38;;;;;;;;;;5018584;28;20034;-64
2022/04/18 03:31:12;;;;;;;24.58;13.38;;;;;;;;;;5038760;28;20488;-63
2022/04/18 03:33:37;;;;;;;25.67;13.85;;;;;;;;;;5037135;28;20033;-63
2022/04/18 03:41:31;;;;;;;24.67;13.07;;;;;;;;;;5030579;28;20060;-64
2022/04/18 03:43:56;;;;;;;26.30;13.15;;;;;;;;;;5025095;28;20034;-63
2022/04/18 03:46:22;;;;;;;23.00;12.77;;;;;;;;;;5016727;28;20033;-64
2022/04/18 03:48:48;;;;;;;23.45;13.07;;;;;;;;;;5029391;28;20036;-64
2022/04/18 03:51:13;;;;;;;25.33;13.55;;;;;;;;;;5038684;28;20037;-63
2022/04/18 03:53:38;;;;;;;25.83;13.63;;;;;;;;;;5048195;28;20156;-63
2022/04/18 03:56:04;;;;;;;26.70;13.15;;;;;;;;;;5017226;28;20042;-63
2022/04/18 03:58:29;;;;;;;22.08;12.63;;;;;;;;;;5018232;28;20490;-64
2022/04/18 04:00:55;;;;;;;22.63;12.07;;;;;;;;;;5035640;28;20029;-65
2022/04/18 04:03:20;;;;;;;25.30;11.90;;;;;;;;;;5039014;28;20055;-64
2022/04/18 04:05:45;;;;;;;19.25;11.52;;;;;;;;;;5034102;28;20082;-64
2022/04/18 04:08:11;;;;;;;22.75;11.60;;;;;;;;;;5023764;28;20080;-64
2022/04/18 04:10:36;;;;;;;22.67;11.95;;;;;;;;;;5016937;28;20084;-63
2022/04/18 04:13:02;;;;;;;31.88;11.82;;;;;;;;;;5022424;28;20034;-65
2022/04/18 04:15:27;;;;;;;20.52;11.10;;;;;;;;;;5011717;28;20026;-64
2022/04/18 04:17:53;;;;;;;21.40;11.73;;;;;;;;;;5027545;28;20486;-65
2022/04/18 04:20:19;;;;;;;20.83;11.45;;;;;;;;;;5029926;28;20038;-64
2022/04/18 04:22:49;;;;;;;20.02;11.50;;;;;;;;;;5034163;28;20072;-64
2022/04/18 04:25:20;;;;;;;20.90;11.52;;;;;;;;;;5025584;28;20033;-65
2022/04/18 04:27:46;;;;;;;22.23;11.60;;;;;;;;;;5036603;28;20037;-63
2022/04/18 04:30:11;;;;;;;20.52;11.20;;;;;;;;;;5020588;28;20044;-63
2022/04/18 04:32:37;;;;;;;20.38;11.30;;;;;;;;;;5033202;28;20483;-64
2022/04/18 04:35:02;;;;;;;20.33;11.60;;;;;;;;;;5035530;28;20037;-63
2022/04/18 04:37:28;;;;;;;23.45;11.88;;;;;;;;;;5032099;28;20030;-63
2022/04/18 04:39:53;;;;;;;21.85;11.73;;;;;;;;;;5037002;28;20090;-63
2022/04/18 04:42:19;;;;;;;20.88;12.05;;;;;;;;;;5051104;28;20386;-64
2022/04/18 04:44:45;;;;;;;23.05;12.05;;;;;;;;;;5036522;28;20037;-63
2022/04/18 04:47:11;;;;;;;23.13;11.82;;;;;;;;;;5021458;28;20034;-64
2022/04/18 04:49:37;;;;;;;18.25;10.55;;;;;;;;;;5037770;28;20029;-63
2022/04/18 04:52:04;;;;;;;23.27;11.18;;;;;;;;;;5043740;28;20382;-68
2022/04/18 04:54:29;;;;;;;21.13;11.00;;;;;;;;;;5030280;28;20032;-66
2022/04/18 04:56:55;;;;;;;18.33;10.90;;;;;;;;;;5032543;28;20395;-67
2022/04/18 04:59:20;;;;;;;19.23;11.00;;;;;;;;;;5031860;28;20115;-66
2022/04/18 05:01:46;;;;;;;18.40;10.65;;;;;;;;;;5030824;28;20029;-67
2022/04/18 05:04:11;;;;;;;24.15;11.25;;;;;;;;;;5034810;28;20436;-67
2022/04/18 05:06:36;;;;;;;21.42;10.90;;;;;;;;;;5030588;28;20022;-67
2022/04/18 05:09:02;;;;;;;23.80;11.25;;;;;;;;;;5039373;28;20025;-66
2022/04/18 05:11:28;;;;;;;19.42;10.57;;;;;;;;;;5049986;28;20516;-65
2022/04/18 05:13:54;;;;;;;20.77;10.73;;;;;;;;;;5043207;28;20087;-66
2022/04/18 05:16:20;;;;;;;18.63;10.77;;;;;;;;;;5052032;28;20052;-66
2022/04/18 05:18:46;;;;;;;17.83;10.25;;;;;;;;;;5029375;28;20060;-66
2022/04/18 05:21:11;;;;;;;17.63;10.45;;;;;;;;;;5050675;28;20028;-67
2022/04/18 05:23:37;;;;;;;17.70;10.43;;;;;;;;;;5042669;28;20029;-66
2022/04/18 05:26:02;;;;;;;20.67;10.73;;;;;;;;;;5051055;28;20082;-67
2022/04/18 05:28:28;;;;;;;20.50;11.25;;;;;;;;;;5050042;28;20037;-67
2022/04/18 05:30:53;;;;;;;19.75;11.30;;;;;;;;;;5052141;28;20029;-67
2022/04/18 05:33:21;;;;;;;18.50;10.43;;;;;;;;;;5049805;28;20120;-66
2022/04/18 05:35:46;;;;;;;18.77;9.98;;;;;;;;;;5042700;28;20028;-66
2022/04/18 05:38:14;;;;;;;19.73;11.27;;;;;;;;;;5047885;28;20379;-67
2022/04/18 05:40:40;;;;;;;20.27;10.80;;;;;;;;;;5032885;28;20436;-66
2022/04/18 05:43:05;;;;;;;20.55;10.80;;;;;;;;;;5044433;28;20471;-67
2022/04/18 05:45:31;;;;;;;20.63;11.02;;;;;;;;;;5045280;28;20190;-66
2022/04/18 05:47:57;;;;;;;18.40;11.25;;;;;;;;;;5042543;28;20021;-67
2022/04/18 05:50:22;;;;;;;19.10;10.60;;;;;;;;;;5050248;28;20037;-66
2022/04/18 05:52:48;;;;;;;20.08;10.98;;;;;;;;;;5037764;28;20040;-65
2022/04/18 05:55:13;;;;;;;18.40;10.60;;;;;;;;;;5031075;28;20037;-68
2022/04/18 05:57:39;;;;;;;19.90;11.02;;;;;;;;;;5050765;28;20033;-68
2022/04/18 06:00:05;;;;;;;21.75;11.07;;;;;;;;;;5044949;28;20028;-66
2022/04/18 06:02:31;;;;;;;21.08;10.60;;;;;;;;;;5050510;28;20029;-66
2022/04/18 06:04:56;;;;;;;22.67;11.02;;;;;;;;;;5048558;28;20124;-66
2022/04/18 06:07:21;;;;;;;19.20;10.60;;;;;;;;;;5049303;28;20029;-67
2022/04/18 06:09:47;;;;;;;16.35;9.93;;;;;;;;;;5036347;28;20501;-68
2022/04/18 06:12:12;;;;;;;14.90;8.95;;;;;;;;;;5034202;28;20024;-67
2022/04/18 06:14:38;;;;;;;17.25;9.02;;;;;;;;;;5030387;28;20558;-67
2022/04/18 06:17:04;;;;;;;14.65;8.63;;;;;;;;;;5030499;28;20030;-68
2022/04/18 06:19:29;;;;;;;19.80;9.65;;;;;;;;;;5010931;28;20030;-67
2022/04/18 06:21:55;;;;;;;16.90;8.68;;;;;;;;;;5020802;28;20129;-67
2022/04/18 06:24:20;;;;;;;17.45;9.13;;;;;;;;;;5014319;28;20038;-66
2022/04/18 06:26:46;;;;;;;14.63;8.43;;;;;;;;;;5042923;28;20025;-66
2022/04/18 06:29:12;;;;;;;15.05;8.73;;;;;;;;;;5011380;28;20030;-67
2022/04/18 06:31:37;;;;;;;15.40;8.43;;;;;;;;;;5027051;28;20507;-67
2022/04/18 06:34:03;;;;;;;14.40;8.80;;;;;;;;;;5031402;28;20071;-68
2022/04/18 06:36:28;;;;;;;16.15;8.75;;;;;;;;;;5031330;28;20061;-67
2022/04/18 06:38:53;;;;;;;16.15;9.25;;;;;;;;;;5031346;28;20383;-67
2022/04/18 06:41:19;;;;;;;18.08;9.63;;;;;;;;;;5033591;28;20471;-67
2022/04/18 06:43:44;;;;;;;19.33;10.20;;;;;;;;;;5031718;28;20171;-67
2022/04/18 06:46:10;;;;;;;21.92;11.18;;;;;;;;;;5044266;28;20037;-69
2022/04/18 06:48:35;;;;;;;18.90;9.32;;;;;;;;;;5035254;28;20034;-67
2022/04/18 06:51:00;;;;;;;18.30;10.18;;;;;;;;;;5037994;28;20033;-68
2022/04/18 06:53:26;;;;;;;20.60;10.85;;;;;;;;;;5033820;28;20025;-67
2022/04/18 06:58:35;;;;;;;23.25;12.63;;;;;;;;;;5036220;28;20039;-69
2022/04/18 07:01:01;;;;;;;19.98;11.68;;;;;;;;;;5040934;28;20037;-68
2022/04/18 07:03:27;;;;;;;20.42;11.32;;;;;;;;;;5040190;28;20029;-67
2022/04/18 07:05:52;;;;;;;20.55;11.93;;;;;;;;;;5047631;28;20057;-67
2022/04/18 07:08:18;;;;;;;21.27;12.63;;;;;;;;;;5033453;28;20030;-67
2022/04/18 07:10:43;;;;;;;23.83;13.10;;;;;;;;;;5039084;28;20552;-67
2022/04/18 07:13:08;;;;;;;21.63;11.52;;;;;;;;;;5049773;28;20033;-67
2022/04/18 07:15:34;;;;;;;20.08;12.07;;;;;;;;;;5034808;28;20521;-66
2022/04/18 07:17:59;;;;;;;22.23;11.60;;;;;;;;;;5020439;28;20037;-66
2022/04/18 07:20:25;;;;;;;19.27;11.00;;;;;;;;;;5036445;28;20120;-67
2022/04/18 07:22:51;;;;;;;17.95;11.27;;;;;;;;;;5050651;28;20103;-66
2022/04/18 07:25:17;;;;;;;17.23;10.55;;;;;;;;;;5049757;28;20432;-67
2022/04/18 07:27:44;;;;;;;18.77;10.50;;;;;;;;;;5033535;28;20034;-67
2022/04/18 07:30:10;;;;;;;20.17;9.93;;;;;;;;;;5050062;28;20482;-67
2022/04/18 07:32:42;;;;;;;19.75;10.30;;;;;;;;;;5051891;28;20040;-67
2022/04/18 07:35:09;;;;;;;18.10;9.65;;;;;;;;;;5037388;28;20091;-67
2022/04/18 07:37:35;;;;;;;14.73;8.70;;;;;;;;;;5051525;28;20033;-66
2022/04/18 07:40:00;;;;;;;12.13;7.53;;;;;;;;;;5050010;28;20028;-66
2022/04/18 07:42:26;;;;;;;16.10;8.35;;;;;;;;;;5052532;28;20079;-66
2022/04/18 07:44:51;;;;;;;15.23;9.02;;;;;;;;;;5043705;28;20866;-66
2022/04/18 07:47:16;;;;;;;13.35;8.45;;;;;;;;;;5052604;28;20394;-67
2022/04/18 07:49:42;;;;;;;12.20;8.02;;;;;;;;;;5046927;28;20065;-67
2022/04/18 07:52:08;;;;;;;12.93;8.65;;;;;;;;;;5031116;28;20475;-66
2022/04/18 07:54:34;;;;;;;16.83;8.98;;;;;;;;;;5031801;28;20034;-66
2022/04/18 07:57:00;;;;;;;13.25;8.00;;;;;;;;;;5025399;28;20040;-66
2022/04/18 07:59:25;;;;;;;13.20;8.48;;;;;;;;;;5046317;28;20509;-67
2022/04/18 08:01:51;;;;;;;15.13;8.05;;;;;;;;;;5013853;28;20223;-67
2022/04/18 08:04:16;;;;;;;13.52;7.55;;;;;;;;;;5029408;28;20041;-66
2022/04/18 08:06:42;;;;;;;11.60;7.15;;;;;;;;;;5026072;28;20025;-66
2022/04/18 08:09:07;;;;;;;13.45;6.93;;;;;;;;;;5025876;28;20065;-66
2022/04/18 08:11:33;;;;;;;13.80;6.95;;;;;;;;;;5051195;28;20134;-66
2022/04/18 08:13:58;;;;;;;13.98;7.00;;;;;;;;;;5045406;28;20047;-67
2022/04/18 08:16:23;;;;;;;12.40;6.93;;;;;;;;;;5053098;28;20079;-66
2022/04/18 08:18:49;;;;;;;12.02;6.85;;;;;;;;;;5039035;28;20029;-66
2022/04/18 08:21:17;;;;;;;14.27;8.00;;;;;;;;;;5025032;28;20528;-67
2022/04/18 08:23:47;;;;;;;13.13;7.78;;;;;;;;;;5013906;28;20037;-66
2022/04/18 08:26:12;;;;;;;11.83;7.60;;;;;;;;;;5022515;28;20029;-65
2022/04/18 08:28:39;;;;;;;14.25;6.97;;;;;;;;;;5052035;28;20300;-65
2022/04/18 08:31:04;;;;;;;12.10;7.50;;;;;;;;;;5050608;28;20029;-65
2022/04/18 08:33:30;;;;;;;12.85;7.45;;;;;;;;;;5014494;28;20395;-65
2022/04/18 08:35:58;;;;;;;12.82;7.60;;;;;;;;;;5017826;28;20041;-65
2022/04/18 08:38:27;;;;;;;14.82;8.10;;;;;;;;;;5034611;28;20068;-65
2022/04/18 08:40:56;;;;;;;11.77;7.55;;;;;;;;;;5033826;28;20053;-67
2022/04/18 08:43:21;;;;;;;11.63;7.38;;;;;;;;;;5028479;28;20042;-66
2022/04/18 08:45:47;;;;;;;12.02;7.25;;;;;;;;;;5012198;28;20502;-66
2022/04/18 08:53:43;;;;;;;9.50;6.25;;;;;;;;;;5029993;28;20064;-68
2022/04/18 08:56:08;;;;;;;11.50;6.47;;;;;;;;;;5034045;28;20041;-68
2022/04/18 08:58:34;;;;;;;10.35;6.43;;;;;;;;;;5032332;28;20428;-66
2022/04/18 09:01:02;;;;;;;9.82;5.90;;;;;;;;;;5031929;28;20070;-67
2022/04/18 09:03:28;;;;;;;9.55;5.95;;;;;;;;;;5014070;28;20037;-67
2022/04/18 09:06:05;;;;;;;12.80;6.28;;;;;;;;;;5042305;28;20557;-67
2022/04/18 09:08:34;;;;;;;10.18;6.18;;;;;;;;;;5011276;28;20029;-66
2022/04/18 09:10:59;;;;;;;11.93;6.45;;;;;;;;;;5031070;28;20364;-66
2022/04/18 09:13:25;;;;;;;10.18;6.00;;;;;;;;;;5030440;28;20088;-66
2022/04/18 09:15:50;;;;;;;10.25;6.22;;;;;;;;;;5034909;28;20032;-68
2022/04/18 09:18:20;;;;;;;9.93;6.03;;;;;;;;;;5051845;28;20040;-66
2022/04/18 09:20:48;;;;;;;9.77;5.95;;;;;;;;;;5046835;28;20079;-66
2022/04/18 09:23:28;;;;;;;9.20;5.78;;;;;;;;;;5049284;28;20124;-67
2022/04/18 09:26:10;;;;;;;11.18;6.07;;;;;;;;;;5045644;28;20089;-66
2022/04/18 09:28:40;;;;;;;10.50;6.00;;;;;;;;;;5038031;28;20100;-67
2022/04/18 09:31:13;;;;;;;9.65;5.95;;;;;;;;;;5018189;28;20098;-68
2022/04/18 09:33:46;;;;;;;9.40;6.15;;;;;;;;;;5032748;28;20425;-66
2022/04/18 09:36:19;;;;;;;7.70;5.18;;;;;;;;;;5043794;28;20442;-67
2022/04/18 09:38:55;;;;;;;9.10;5.63;;;;;;;;;;5011350;28;20038;-67
2022/04/18 09:41:23;;;;;;;8.73;5.55;;;;;;;;;;5011179;28;20026;-67
2022/04/18 09:43:52;;;;;;;9.80;5.53;;;;;;;;;;5009935;28;20471;-67
2022/04/18 09:46:18;;;;;;;10.45;5.90;;;;;;;;;;5019490;28;20036;-66
2022/04/18 09:48:45;;;;;;;11.98;5.90;;;;;;;;;;5050559;28;20025;-66
2022/04/18 09:51:13;;;;;;;9.95;5.70;;;;;;;;;;5048552;28;20040;-67
2022/04/18 09:53:46;;;;;;;8.50;5.47;;;;;;;;;;5028197;28;20025;-65
2022/04/18 09:56:16;;;;;;;9.45;5.28;;;;;;;;;;5044200;28;20085;-67
2022/04/18 09:58:43;;;;;;;8.40;5.32;;;;;;;;;;5047278;28;20041;-66
2022/04/18 10:01:09;;;;;;;7.50;5.03;;;;;;;;;;5030740;28;20049;-67
2022/04/18 10:03:35;;;;;;;8.93;5.82;;;;;;;;;;5027778;28;20077;-68
2022/04/18 10:06:01;;;;;;;10.00;5.50;;;;;;;;;;5029238;28;20462;-67
2022/04/18 10:08:28;;;;;;;9.98;5.80;;;;;;;;;;5031943;28;20102;-67
2022/04/18 10:10:57;;;;;;;8.05;5.00;;;;;;;;;;5033508;28;20084;-67
2022/04/18 10:13:22;;;;;;;9.05;4.93;;;;;;;;;;5041513;28;20094;-66
2022/04/18 10:15:49;;;;;;;7.82;5.35;;;;;;;;;;5039910;28;20108;-66
2022/04/18 10:18:15;;;;;;;8.88;5.50;;;;;;;;;;5050156;28;20041;-66
2022/04/18 10:21:08;;;;;;;9.95;5.78;;;;;;;;;;5050712;28;20040;-67
2022/04/18 10:23:52;;;;;;;10.05;5.72;;;;;;;;;;5018166;28;20042;-68
2022/04/18 10:26:30;;;;;;;8.80;5.65;;;;;;;;;;5015492;28;20040;-66
2022/04/18 10:29:00;;;;;;;7.80;5.20;;;;;;;;;;5035023;28;20471;-67
2022/04/18 10:31:39;;;;;;;10.15;5.35;;;;;;;;;;5053042;28;20044;-67
2022/04/18 10:34:05;;;;;;;9.48;4.40;;;;;;;;;;5046803;28;20033;-68
2022/04/18 10:36:33;;;;;;;7.45;5.07;;;;;;;;;;5023513;28;20222;-67
2022/04/18 10:39:06;;;;;;;8.77;4.60;;;;;;;;;;5014282;28;20495;-67
2022/04/18 10:41:34;;;;;;;6.15;3.92;;;;;;;;;;5052258;28;20398;-69
2022/04/18 10:44:06;;;;;;;6.55;4.35;;;;;;;;;;5054107;28;20025;-67
2022/04/18 10:46:32;;;;;;;7.35;5.03;;;;;;;;;;5036996;28;20045;-67
2022/04/18 10:49:21;;;;;;;9.32;5.65;;;;;;;;;;5033374;28;20202;-66
2022/04/18 10:51:51;;;;;;;10.77;4.40;;;;;;;;;;5052295;28;20055;-67
2022/04/18 10:54:21;;;;;;;7.28;4.50;;;;;;;;;;5045548;28;20124;-67
2022/04/18 10:56:53;;;;;;;8.57;4.90;;;;;;;;;;5034204;28;20069;-67
2022/04/18 10:59:27;;;;;;;7.32;4.38;;;;;;;;;;5035109;28;20108;-67
2022/04/18 11:01:58;;;;;;;7.20;4.43;;;;;;;;;;5034034;28;20585;-66
2022/04/18 11:04:25;;;;;;;6.20;4.47;;;;;;;;;;5031151;28;20037;-67
2022/04/18 11:06:57;;;;;;;6.68;4.55;;;;;;;;;;5032897;28;20485;-67
2022/04/18 11:09:23;;;;;;;8.23;4.60;;;;;;;;;;5035295;28;20037;-67
2022/04/18 11:11:51;;;;;;;11.88;4.65;;;;;;;;;;5030109;28;20095;-67
2022/04/18 11:14:28;;;;;;;7.28;4.60;;;;;;;;;;5036913;28;20102;-68
2022/04/18 11:17:01;;;;;;;8.25;4.50;;;;;;;;;;5033627;28;20040;-67
2022/04/18 11:19:31;;;;;;;8.80;4.72;;;;;;;;;;5035067;28;20037;-66
2022/04/18 11:21:58;;;;;;;8.20;4.93;;;;;;;;;;5040073;28;20052;-67
2022/04/18 11:24:48;;;;;;;7.53;4.80;;;;;;;;;;5054282;28;20029;-67
2022/04/18 11:27:26;;;;;;;8.02;4.85;;;;;;;;;;5041318;28;20068;-68
2022/04/18 11:29:54;;;;;;;6.80;4.63;;;;;;;;;;5032602;28;20086;-67
2022/04/18 11:32:22;;;;;;;8.10;4.45;;;;;;;;;;5035902;28;20475;-67
2022/04/18 11:34:50;;;;;;;6.53;4.72;;;;;;;;;;5033079;28;20498;-67
2022/04/18 11:37:22;;;;;;;6.40;4.13;;;;;;;;;;5042329;28;20033;-68
2022/04/18 11:39:50;;;;;;;6.18;4.50;;;;;;;;;;5029152;28;20055;-66
2022/04/18 11:42:21;;;;;;;7.15;4.57;;;;;;;;;;5022548;28;20120;-60
2022/04/18 11:44:49;;;;;;;6.35;4.65;;;;;;;;;;5019931;28;20061;-60
2022/04/18 11:47:18;;;;;;;6.07;4.60;;;;;;;;;;5014195;28;20037;-60
2022/04/18 11:49:45;;;;;;;6.53;4.30;;;;;;;;;;5024410;28;20029;-61
2022/04/18 11:52:25;;;;;;;6.40;4.18;;;;;;;;;;5052233;28;20036;-60
2022/04/18 11:55:09;;;;;;;6.30;4.20;;;;;;;;;;5042360;28;20029;-60
2022/04/18 11:57:36;;;;;;;5.82;3.75;;;;;;;;;;5019308;28;20041;-60
2022/04/18 12:00:09;;;;;;;5.88;3.90;;;;;;;;;;5052132;28;20041;-60
2022/04/18 12:08:10;;;;;;;6.95;4.28;;;;;;;;;;5050564;28;20100;-60
2022/04/18 12:10:38;;;;;;;5.70;4.05;;;;;;;;;;5050629;28;20108;-60
2022/04/18 12:13:09;;;;;;;6.22;4.25;;;;;;;;;;5032862;28;20037;-61
2022/04/18 12:15:35;;;;;;;6.93;4.07;;;;;;;;;;5015365;28;21420;-63
2022/04/18 12:18:11;;;;;;;5.20;3.90;;;;;;;;;;5040347;28;20029;-60
2022/04/18 12:20:40;;;;;;;6.57;3.58;;;;;;;;;;5028222;28;20037;-60
2022/04/18 12:23:06;;;;;;;6.18;4.10;;;;;;;;;;5020994;28;20115;-60
2022/04/18 12:25:33;;;;;;;6.40;4.18;;;;;;;;;;5043740;28;20032;-60
2022/04/18 12:28:00;;;;;;;5.40;3.92;;;;;;;;;;5042129;28;20436;-60
2022/04/18 12:30:27;;;;;;;6.78;4.13;;;;;;;;;;5041634;28;20025;-61
2022/04/18 12:32:54;;;;;;;6.78;4.10;;;;;;;;;;5050074;28;20042;-61
2022/04/18 12:35:48;;;;;;;8.02;4.07;;;;;;;;;;5032263;28;20037;-59
2022/04/18 12:38:16;;;;;;;5.65;3.92;;;;;;;;;;5051847;28;20036;-60
2022/04/18 12:40:46;;;;;;;6.63;4.00;;;;;;;;;;5040818;28;20128;-59
2022/04/18 12:43:15;;;;;;;6.32;3.72;;;;;;;;;;5051066;28;20041;-59
2022/04/18 12:45:41;;;;;;;5.50;3.90;;;;;;;;;;5044318;28;20406;-59
2022/04/18 12:48:06;;;;;;;5.40;4.00;;;;;;;;;;5040616;28;20033;-60
2022/04/18 12:50:34;;;;;;;5.43;3.90;;;;;;;;;;5043719;28;20461;-59
2022/04/18 12:53:00;;;;;;;5.30;3.55;;;;;;;;;;5032491;28;20033;-59
2022/04/18 12:55:27;;;;;;;6.18;3.83;;;;;;;;;;5032261;28;20029;-59
2022/04/18 12:57:52;;;;;;;4.80;3.67;;;;;;;;;;5031552;28;20069;-59
2022/04/18 13:00:18;;;;;;;4.97;3.55;;;;;;;;;;5041035;28;20052;-59
2022/04/18 13:03:01;;;;;;;5.15;3.70;;;;;;;;;;5014228;28;20029;-59
2022/04/18 13:05:29;;;;;;;4.78;3.70;;;;;;;;;;5031747;28;20107;-59
2022/04/18 13:08:04;;;;;;;5.05;3.40;;;;;;;;;;5031350;28;20029;-59
2022/04/18 13:10:31;;;;;;;4.55;3.17;;;;;;;;;;5025702;28;20056;-60
2022/04/18 13:13:19;;;;;;;4.57;3.35;;;;;;;;;;5039741;28;20039;-60
2022/04/18 13:15:46;;;;;;;5.88;4.10;;;;;;;;;;5029853;28;20139;-60
2022/04/18 13:18:19;;;;;;;4.95;3.70;;;;;;;;;;5029337;28;20040;-60
2022/04/18 13:20:45;;;;;;;4.80;3.50;;;;;;;;;;5031761;28;20034;-60
2022/04/18 13:23:11;;;;;;;6.15;3.53;;;;;;;;;;5034628;28;20562;-60
2022/04/18 13:25:36;;;;;;;5.13;3.50;;;;;;;;;;5051976;28;20040;-59
2022/04/18 13:28:07;;;;;;;4.03;3.13;;;;;;;;;;5037489;28;20447;-60
2022/04/18 13:30:35;;;;;;;4.40;3.05;;;;;;;;;;5027202;28;20060;-60
2022/04/18 13:33:00;;;;;;;4.43;3.20;;;;;;;;;;5039329;28;20033;-59
2022/04/18 13:35:26;;;;;;;4.85;3.28;;;;;;;;;;5043988;28;20029;-60
2022/04/18 13:37:51;;;;;;;4.43;3.35;;;;;;;;;;5041621;28;20037;-60
2022/04/18 13:40:17;;;;;;;5.07;3.42;;;;;;;;;;5043610;28;20121;-60
2022/04/18 13:42:43;;;;;;;4.93;3.38;;;;;;;;;;5052272;28;20036;-60
2022/04/18 13:45:11;;;;;;;4.75;3.35;;;;;;;;;;5034315;28;20041;-60
2022/04/18 13:47:38;;;;;;;5.00;3.50;;;;;;;;;;5018184;28;20109;-60
2022/04/18 13:50:06;;;;;;;5.68;3.50;;;;;;;;;;5023512;28;20083;-60
2022/04/18 13:52:32;;;;;;;4.25;3.30;;;;;;;;;;5031951;28;20389;-60
2022/04/18 13:54:57;;;;;;;4.72;3.17;;;;;;;;;;5030689;28;20060;-60
2022/04/18 13:57:22;;;;;;;4.72;3.42;;;;;;;;;;5034755;28;20032;-59
2022/04/18 13:59:48;;;;;;;5.00;3.50;;;;;;;;;;5028110;28;20103;-59
2022/04/18 14:02:13;;;;;;;5.28;2.92;;;;;;;;;;5040039;28;20086;-60
2022/04/18 14:04:39;;;;;;;3.90;3.33;;;;;;;;;;5036427;28;20033;-60
2022/04/18 14:07:04;;;;;;;4.47;3.10;;;;;;;;;;5049414;28;20108;-60
2022/04/18 14:09:30;;;;;;;3.85;2.88;;;;;;;;;;5048614;28;20040;-60
2022/04/18 14:11:56;;;;;;;6.43;3.00;;;;;;;;;;5050728;28;20047;-60
2022/04/18 14:22:36;;;;;;;4.05;2.72;;;;;;;;;;5017642;28;20110;-65
2022/04/18 14:25:01;;;;;;;3.88;3.00;;;;;;;;;;5049435;28;20494;-65
2022/04/18 14:27:27;;;;;;;4.40;2.70;;;;;;;;;;5044039;28;20057;-65
2022/04/18 14:29:54;;;;;;;4.10;2.67;;;;;;;;;;5016931;28;20029;-66
2022/04/18 14:32:20;;;;;;;4.45;2.50;;;;;;;;;;5041982;28;20036;-66
2022/04/18 14:34:46;;;;;;;3.95;2.70;;;;;;;;;;5047235;28;20044;-65
2022/04/18 14:37:11;;;;;;;3.25;2.63;;;;;;;;;;5042681;28;20091;-65
2022/04/18 14:39:36;;;;;;;3.33;2.40;;;;;;;;;;5024925;28;20479;-65
2022/04/18 14:42:02;;;;;;;3.35;2.40;;;;;;;;;;5010725;28;20030;-65
2022/04/18 14:44:27;;;;;;;5.10;2.30;;;;;;;;;;5039236;28;20117;-65
2022/04/18 14:46:53;;;;;;;2.97;2.22;;;;;;;;;;5050549;28;20428;-65
2022/04/18 14:49:18;;;;;;;4.07;2.20;;;;;;;;;;5030346;28;20034;-65
2022/04/18 14:51:43;;;;;;;3.40;2.20;;;;;;;;;;5011232;28;20148;-66
2022/04/18 14:54:09;;;;;;;3.92;2.40;;;;;;;;;;5039082;28;20033;-66
2022/04/18 14:56:34;;;;;;;2.20;2.00;;;;;;;;;;5052845;28;20029;-65
2022/04/18 14:59:00;;;;;;;3.35;2.25;;;;;;;;;;5025608;28;20430;-64